Time;durP1;ratioP1;P1;durP2;ratioP2;P2;SDS_P1;SDS_P2;PMS_P1;PMS_P2;Temp;Humidity;BMP_temperature;BMP_pressure;BME280_temperature;BME280_humidity;BME280_pressure;Samples;Min_cycle;Max_cycle;Signal;HPM_P1;HPM_P2
2022/10/13 00:02:16;;;;;;;22.65;14.23;;;;;;;;;;5025010;28;20081;-75
2022/10/13 00:04:42;;;;;;;21.70;13.38;;;;;;;;;;5025972;28;20061;-75
2022/10/13 00:07:08;;;;;;;23.15;14.10;;;;;;;;;;5007686;28;20531;-75
2022/10/13 00:09:34;;;;;;;26.02;14.45;;;;;;;;;;5025021;28;20128;-75
2022/10/13 00:12:00;;;;;;;26.23;15.50;;;;;;;;;;5024702;28;20091;-75
2022/10/13 00:14:26;;;;;;;23.35;14.48;;;;;;;;;;5008822;28;20417;-75
2022/10/13 00:16:53;;;;;;;21.58;14.82;;;;;;;;;;5025150;28;20060;-75
2022/10/13 00:19:19;;;;;;;23.38;15.60;;;;;;;;;;5025019;28;20243;-75
2022/10/13 00:21:45;;;;;;;30.00;14.57;;;;;;;;;;5025163;28;20563;-75
2022/10/13 00:24:11;;;;;;;22.58;15.23;;;;;;;;;;5024457;28;20077;-75
2022/10/13 00:26:37;;;;;;;24.92;14.77;;;;;;;;;;5024508;28;20088;-75
2022/10/13 00:29:03;;;;;;;20.58;14.40;;;;;;;;;;5007727;28;20058;-75
2022/10/13 00:31:30;;;;;;;25.80;13.90;;;;;;;;;;5024204;28;20041;-75
2022/10/13 00:34:00;;;;;;;24.20;14.00;;;;;;;;;;5024280;28;20477;-75
2022/10/13 00:36:26;;;;;;;28.10;14.80;;;;;;;;;;5023865;28;20057;-75
2022/10/13 00:38:52;;;;;;;20.25;15.48;;;;;;;;;;5023730;28;20137;-75
2022/10/13 00:41:18;;;;;;;17.60;13.38;;;;;;;;;;5023844;28;20053;-75
2022/10/13 00:43:58;;;;;;;25.02;14.60;;;;;;;;;;5024218;28;20057;-75
2022/10/13 00:46:32;;;;;;;24.10;13.93;;;;;;;;;;5024199;28;20104;-75
2022/10/13 00:48:59;;;;;;;19.17;15.18;;;;;;;;;;5007740;28;20053;-75
2022/10/13 00:51:27;;;;;;;26.85;16.42;;;;;;;;;;5024130;28;20545;-75
2022/10/13 00:53:55;;;;;;;23.35;14.60;;;;;;;;;;5024362;28;20081;-75
2022/10/13 00:56:22;;;;;;;19.23;12.75;;;;;;;;;;5023675;28;20132;-75
2022/10/13 00:58:48;;;;;;;21.92;13.15;;;;;;;;;;5023855;28;20111;-75
2022/10/13 01:01:14;;;;;;;19.85;13.98;;;;;;;;;;5024316;28;20049;-75
2022/10/13 01:03:40;;;;;;;22.27;13.30;;;;;;;;;;5024249;28;20156;-75
2022/10/13 01:06:07;;;;;;;27.67;15.50;;;;;;;;;;5024041;28;20085;-75
2022/10/13 01:08:34;;;;;;;22.77;13.55;;;;;;;;;;5023505;28;20056;-75
2022/10/13 01:11:19;;;;;;;26.15;15.20;;;;;;;;;;5024102;28;20121;-75
2022/10/13 01:14:04;;;;;;;19.58;13.65;;;;;;;;;;5023467;28;20098;-75
2022/10/13 01:16:39;;;;;;;21.90;13.95;;;;;;;;;;4995442;28;20122;-75
2022/10/13 01:19:05;;;;;;;26.48;13.15;;;;;;;;;;5027742;28;20050;-75
2022/10/13 01:21:34;;;;;;;21.70;13.20;;;;;;;;;;5028134;28;20088;-75
2022/10/13 01:24:01;;;;;;;23.73;14.00;;;;;;;;;;5027167;28;20394;-75
2022/10/13 01:26:36;;;;;;;18.75;13.95;;;;;;;;;;5028145;28;20428;-75
2022/10/13 01:29:17;;;;;;;23.77;13.55;;;;;;;;;;5027519;28;20115;-75
2022/10/13 01:31:50;;;;;;;25.33;14.15;;;;;;;;;;5027776;28;20084;-75
2022/10/13 01:34:20;;;;;;;23.17;13.70;;;;;;;;;;5027360;28;20128;-75
2022/10/13 01:36:56;;;;;;;25.48;12.65;;;;;;;;;;5027977;28;20050;-75
2022/10/13 01:39:37;;;;;;;38.38;14.55;;;;;;;;;;5027080;28;20057;-75
2022/10/13 01:42:10;;;;;;;22.70;14.80;;;;;;;;;;5026882;28;20088;-74
2022/10/13 01:44:39;;;;;;;22.45;13.88;;;;;;;;;;5009123;28;20049;-74
2022/10/13 01:47:06;;;;;;;23.83;13.88;;;;;;;;;;5026846;28;20060;-74
2022/10/13 01:49:34;;;;;;;23.65;15.25;;;;;;;;;;5027087;28;20145;-74
2022/10/13 01:52:06;;;;;;;31.10;15.02;;;;;;;;;;5027273;28;20053;-74
2022/10/13 01:54:32;;;;;;;25.33;13.10;;;;;;;;;;5027216;28;20531;-74
2022/10/13 01:56:58;;;;;;;17.75;12.45;;;;;;;;;;5027793;28;20136;-74
2022/10/13 01:59:25;;;;;;;26.45;14.15;;;;;;;;;;5027053;28;20052;-74
2022/10/13 02:01:56;;;;;;;22.50;13.88;;;;;;;;;;5027083;28;20392;-74
2022/10/13 02:04:30;;;;;;;21.00;14.02;;;;;;;;;;5026623;28;20068;-74
2022/10/13 02:07:23;;;;;;;20.02;13.25;;;;;;;;;;5026807;28;20054;-74
2022/10/13 02:09:52;;;;;;;23.95;14.15;;;;;;;;;;5023868;28;20421;-74
2022/10/13 02:12:23;;;;;;;25.17;13.20;;;;;;;;;;5010419;28;20116;-74
2022/10/13 02:14:50;;;;;;;20.00;12.93;;;;;;;;;;5028916;28;20041;-74
2022/10/13 02:17:16;;;;;;;25.23;14.80;;;;;;;;;;5026294;28;20115;-74
2022/10/13 02:19:43;;;;;;;22.58;13.07;;;;;;;;;;5010419;28;20064;-74
2022/10/13 02:22:10;;;;;;;21.58;13.85;;;;;;;;;;5026657;28;20494;-74
2022/10/13 02:24:36;;;;;;;22.35;12.52;;;;;;;;;;5026347;28;20107;-74
2022/10/13 02:27:04;;;;;;;24.85;13.80;;;;;;;;;;5026625;28;20525;-74
2022/10/13 02:29:31;;;;;;;27.70;15.63;;;;;;;;;;5025518;28;20057;-74
2022/10/13 02:31:57;;;;;;;20.52;14.27;;;;;;;;;;5026445;28;20498;-74
2022/10/13 02:34:23;;;;;;;22.40;15.20;;;;;;;;;;5025920;28;20124;-74
2022/10/13 02:36:49;;;;;;;23.27;13.30;;;;;;;;;;5026597;28;20092;-74
2022/10/13 02:39:16;;;;;;;23.15;13.13;;;;;;;;;;5025941;28;20060;-74
2022/10/13 02:41:42;;;;;;;22.40;12.45;;;;;;;;;;5026263;28;20420;-74
2022/10/13 02:44:08;;;;;;;21.98;14.13;;;;;;;;;;5025652;28;20057;-74
2022/10/13 02:46:35;;;;;;;22.02;12.05;;;;;;;;;;5026108;28;20462;-74
2022/10/13 02:49:01;;;;;;;18.83;13.70;;;;;;;;;;5025899;28;20045;-74
2022/10/13 02:51:27;;;;;;;23.13;14.32;;;;;;;;;;5025788;28;20045;-74
2022/10/13 02:53:53;;;;;;;22.58;14.52;;;;;;;;;;5009331;28;20059;-74
2022/10/13 02:56:19;;;;;;;23.70;13.70;;;;;;;;;;5025241;28;20053;-74
2022/10/13 02:58:45;;;;;;;21.48;14.30;;;;;;;;;;5025882;28;20144;-74
2022/10/13 03:01:13;;;;;;;19.42;13.75;;;;;;;;;;5025433;28;20061;-74
2022/10/13 03:03:39;;;;;;;23.80;14.27;;;;;;;;;;5025772;28;20049;-74
2022/10/13 03:06:05;;;;;;;19.85;12.23;;;;;;;;;;5025146;28;20611;-74
2022/10/13 03:08:32;;;;;;;26.33;13.90;;;;;;;;;;4991915;28;20144;-74
2022/10/13 03:10:59;;;;;;;19.92;13.82;;;;;;;;;;5009230;28;20101;-74
2022/10/13 03:13:25;;;;;;;24.52;13.57;;;;;;;;;;5008900;28;20060;-74
2022/10/13 03:15:51;;;;;;;20.30;12.93;;;;;;;;;;5025496;28;20049;-74
2022/10/13 03:18:17;;;;;;;20.13;12.77;;;;;;;;;;5024309;28;20038;-74
2022/10/13 03:20:43;;;;;;;21.42;12.82;;;;;;;;;;5025266;28;20136;-74
2022/10/13 03:23:09;;;;;;;19.13;14.35;;;;;;;;;;5024321;28;20049;-74
2022/10/13 03:25:35;;;;;;;22.75;15.10;;;;;;;;;;5024962;28;20425;-74
2022/10/13 03:28:02;;;;;;;19.20;12.50;;;;;;;;;;5025073;28;20422;-74
2022/10/13 03:30:28;;;;;;;21.08;13.82;;;;;;;;;;5025707;28;20049;-74
2022/10/13 03:32:54;;;;;;;20.77;13.38;;;;;;;;;;5025691;28;20057;-74
2022/10/13 03:35:20;;;;;;;18.65;12.70;;;;;;;;;;5025228;28;20141;-74
2022/10/13 03:37:46;;;;;;;23.05;14.13;;;;;;;;;;5025536;28;20414;-74
2022/10/13 03:40:12;;;;;;;20.58;13.23;;;;;;;;;;5024870;28;20049;-74
2022/10/13 03:42:39;;;;;;;20.83;13.70;;;;;;;;;;5025189;28;20462;-74
2022/10/13 03:45:05;;;;;;;19.90;12.68;;;;;;;;;;5024931;28;20386;-74
2022/10/13 03:47:31;;;;;;;20.60;13.63;;;;;;;;;;5025354;28;20525;-74
2022/10/13 03:49:57;;;;;;;21.33;12.48;;;;;;;;;;5008803;28;20064;-74
2022/10/13 03:52:24;;;;;;;22.13;13.20;;;;;;;;;;5025123;28;20095;-74
2022/10/13 03:54:50;;;;;;;17.45;13.25;;;;;;;;;;5025451;28;20064;-74
2022/10/13 03:57:16;;;;;;;19.25;12.98;;;;;;;;;;5025614;28;20153;-74
2022/10/13 03:59:42;;;;;;;23.58;14.52;;;;;;;;;;5025114;28;20133;-73
2022/10/13 04:02:08;;;;;;;17.27;14.40;;;;;;;;;;5025431;28;20443;-73
2022/10/13 04:04:34;;;;;;;20.00;15.10;;;;;;;;;;5024269;28;20056;-74
2022/10/13 04:07:01;;;;;;;21.80;15.43;;;;;;;;;;5026537;28;20045;-74
2022/10/13 04:09:27;;;;;;;19.85;14.07;;;;;;;;;;5023800;28;20057;-74
2022/10/13 04:11:53;;;;;;;22.48;14.90;;;;;;;;;;5024971;28;20052;-74
2022/10/13 04:14:19;;;;;;;21.38;13.90;;;;;;;;;;5008258;28;20076;-74
2022/10/13 04:16:46;;;;;;;25.30;15.73;;;;;;;;;;5008299;28;20053;-74
2022/10/13 04:19:13;;;;;;;23.38;15.57;;;;;;;;;;5023861;28;20068;-74
2022/10/13 04:21:39;;;;;;;23.20;16.83;;;;;;;;;;5021210;28;20642;-74
2022/10/13 04:24:06;;;;;;;27.00;15.02;;;;;;;;;;5020972;28;20057;-74
2022/10/13 04:26:33;;;;;;;23.55;15.43;;;;;;;;;;5003629;28;20061;-74
2022/10/13 04:29:00;;;;;;;20.00;15.13;;;;;;;;;;5021408;28;20052;-74
2022/10/13 04:31:27;;;;;;;22.00;16.50;;;;;;;;;;5019795;28;20049;-74
2022/10/13 04:33:54;;;;;;;21.45;14.57;;;;;;;;;;5020748;28;20049;-74
2022/10/13 04:36:20;;;;;;;20.25;15.25;;;;;;;;;;5022343;28;20573;-74
2022/10/13 04:38:47;;;;;;;21.15;16.33;;;;;;;;;;5021722;28;20088;-74
2022/10/13 04:41:14;;;;;;;23.67;17.23;;;;;;;;;;5023632;28;20569;-74
2022/10/13 04:43:40;;;;;;;25.77;16.98;;;;;;;;;;5022689;28;20580;-74
2022/10/13 04:46:13;;;;;;;26.20;16.00;;;;;;;;;;4992170;28;20057;-74
2022/10/13 04:48:39;;;;;;;24.95;16.48;;;;;;;;;;5024635;28;20118;-74
2022/10/13 04:51:10;;;;;;;28.10;19.02;;;;;;;;;;5024908;28;20435;-74
2022/10/13 04:53:36;;;;;;;22.73;16.60;;;;;;;;;;5027482;28;20037;-74
2022/10/13 04:56:03;;;;;;;24.70;17.63;;;;;;;;;;5028245;28;20144;-74
2022/10/13 04:58:32;;;;;;;26.20;17.85;;;;;;;;;;5028899;28;20434;-74
2022/10/13 05:00:58;;;;;;;24.15;17.50;;;;;;;;;;4996979;28;20792;-74
2022/10/13 05:03:25;;;;;;;23.52;16.38;;;;;;;;;;5029495;28;20041;-74
2022/10/13 05:05:51;;;;;;;24.45;17.70;;;;;;;;;;5029294;28;20446;-74
2022/10/13 05:08:17;;;;;;;29.80;19.40;;;;;;;;;;5016084;28;20048;-74
2022/10/13 05:10:52;;;;;;;28.17;17.38;;;;;;;;;;5055622;28;20044;-74
2022/10/13 05:13:18;;;;;;;24.50;17.65;;;;;;;;;;5016275;28;20059;-74
2022/10/13 05:15:44;;;;;;;24.38;17.80;;;;;;;;;;5015678;28;20040;-74
2022/10/13 05:18:10;;;;;;;23.00;16.52;;;;;;;;;;5032111;28;20060;-74
2022/10/13 05:20:36;;;;;;;25.23;18.02;;;;;;;;;;5055085;28;20055;-74
2022/10/13 05:23:02;;;;;;;27.35;16.38;;;;;;;;;;5015606;28;20088;-74
2022/10/13 05:25:28;;;;;;;27.83;18.67;;;;;;;;;;5029166;28;20053;-78
2022/10/13 05:27:54;;;;;;;27.33;19.10;;;;;;;;;;5006230;28;20052;-74
2022/10/13 05:30:20;;;;;;;27.40;17.65;;;;;;;;;;5029547;28;20103;-75
2022/10/13 05:32:46;;;;;;;26.35;19.15;;;;;;;;;;5057173;28;20045;-74
2022/10/13 05:35:12;;;;;;;28.75;19.10;;;;;;;;;;5034516;28;20045;-75
2022/10/13 05:37:38;;;;;;;26.90;18.92;;;;;;;;;;5014336;28;20045;-74
2022/10/13 05:40:05;;;;;;;30.38;19.02;;;;;;;;;;5031142;28;20049;-78
2022/10/13 05:42:31;;;;;;;24.00;18.27;;;;;;;;;;5014173;28;20041;-78
2022/10/13 05:45:00;;;;;;;28.67;20.10;;;;;;;;;;4990896;28;20045;-78
2022/10/13 05:47:27;;;;;;;23.70;19.20;;;;;;;;;;4991014;28;20041;-77
2022/10/13 05:49:56;;;;;;;31.27;18.20;;;;;;;;;;5013136;28;20524;-77
2022/10/13 05:52:23;;;;;;;25.15;18.75;;;;;;;;;;5031156;28;20104;-74
2022/10/13 05:54:53;;;;;;;28.25;19.00;;;;;;;;;;5030755;28;20052;-74
2022/10/13 05:57:24;;;;;;;28.08;18.13;;;;;;;;;;5030610;28;20604;-74
2022/10/13 05:59:56;;;;;;;32.10;20.33;;;;;;;;;;5030827;28;20402;-74
2022/10/13 06:02:24;;;;;;;31.65;19.90;;;;;;;;;;5031358;28;20045;-73
2022/10/13 06:04:51;;;;;;;36.22;21.95;;;;;;;;;;5028052;28;20151;-75
2022/10/13 06:07:18;;;;;;;31.50;22.05;;;;;;;;;;5028669;28;20168;-74
2022/10/13 06:09:44;;;;;;;26.77;20.08;;;;;;;;;;5011441;28;20045;-74
2022/10/13 06:12:10;;;;;;;33.50;20.75;;;;;;;;;;5054278;28;20457;-74
2022/10/13 06:14:36;;;;;;;30.38;21.42;;;;;;;;;;5027150;28;20136;-74
2022/10/13 06:17:03;;;;;;;35.22;22.90;;;;;;;;;;5028368;28;20044;-74
2022/10/13 06:19:29;;;;;;;31.38;21.48;;;;;;;;;;5011688;28;20098;-74
2022/10/13 06:21:55;;;;;;;34.50;21.77;;;;;;;;;;5057090;28;20431;-74
2022/10/13 06:24:21;;;;;;;27.40;21.05;;;;;;;;;;5049958;28;20083;-74
2022/10/13 06:26:47;;;;;;;29.02;18.95;;;;;;;;;;5026620;28;20456;-74
2022/10/13 06:29:14;;;;;;;28.08;19.35;;;;;;;;;;5025305;28;20385;-74
2022/10/13 06:31:40;;;;;;;30.63;20.60;;;;;;;;;;5026479;28;20103;-74
2022/10/13 06:34:06;;;;;;;29.95;20.30;;;;;;;;;;5026438;28;20056;-73
2022/10/13 06:36:32;;;;;;;31.00;20.70;;;;;;;;;;5027058;28;20114;-73
2022/10/13 06:38:58;;;;;;;31.77;21.08;;;;;;;;;;5025933;28;20484;-73
2022/10/13 06:41:24;;;;;;;30.52;21.20;;;;;;;;;;5026359;28;20053;-73
2022/10/13 06:43:50;;;;;;;31.58;20.77;;;;;;;;;;5026272;28;20052;-73
2022/10/13 06:46:16;;;;;;;29.02;20.00;;;;;;;;;;5026133;28;20048;-73
2022/10/13 06:48:43;;;;;;;28.02;20.77;;;;;;;;;;5026138;28;20408;-73
2022/10/13 06:51:10;;;;;;;29.08;19.92;;;;;;;;;;5027349;28;20056;-73
2022/10/13 06:53:36;;;;;;;30.35;22.08;;;;;;;;;;5026629;28;20131;-73
2022/10/13 06:56:03;;;;;;;32.08;21.95;;;;;;;;;;5026217;28;20049;-73
2022/10/13 06:58:29;;;;;;;30.90;22.17;;;;;;;;;;5025761;28;20045;-73
2022/10/13 07:00:55;;;;;;;32.05;21.83;;;;;;;;;;5026378;28;20133;-73
2022/10/13 07:03:22;;;;;;;30.23;21.88;;;;;;;;;;5010250;28;20087;-73
2022/10/13 07:05:48;;;;;;;30.98;23.83;;;;;;;;;;4993725;28;20154;-73
2022/10/13 07:08:15;;;;;;;33.28;22.67;;;;;;;;;;5010466;28;20063;-73
2022/10/13 07:10:41;;;;;;;33.83;22.95;;;;;;;;;;5026035;28;20052;-73
2022/10/13 07:13:07;;;;;;;31.23;22.42;;;;;;;;;;5026256;28;20444;-73
2022/10/13 07:15:33;;;;;;;33.72;23.38;;;;;;;;;;5025484;28;20052;-73
2022/10/13 07:17:59;;;;;;;32.95;23.23;;;;;;;;;;4995589;28;20059;-73
2022/10/13 07:20:25;;;;;;;34.45;24.63;;;;;;;;;;5009220;28;20155;-73
2022/10/13 07:22:54;;;;;;;37.75;25.23;;;;;;;;;;5011132;28;20045;-73
2022/10/13 07:25:21;;;;;;;41.40;25.73;;;;;;;;;;5028392;28;20148;-74
2022/10/13 07:27:47;;;;;;;34.55;23.17;;;;;;;;;;5008712;28;20198;-73
2022/10/13 07:30:13;;;;;;;34.83;24.63;;;;;;;;;;5009541;28;20553;-73
2022/10/13 07:32:41;;;;;;;41.22;27.30;;;;;;;;;;5026272;28;20098;-73
2022/10/13 07:35:10;;;;;;;34.05;25.33;;;;;;;;;;5035719;28;20052;-73
2022/10/13 07:37:37;;;;;;;35.83;24.77;;;;;;;;;;5038687;28;20041;-73
2022/10/13 07:40:07;;;;;;;39.50;24.17;;;;;;;;;;5026838;28;20056;-73
2022/10/13 07:42:33;;;;;;;40.53;27.95;;;;;;;;;;5010774;28;20041;-73
2022/10/13 07:44:59;;;;;;;40.00;26.88;;;;;;;;;;5054845;28;20053;-73
2022/10/13 07:47:25;;;;;;;39.38;28.33;;;;;;;;;;5038268;28;20565;-73
2022/10/13 07:49:53;;;;;;;39.88;26.38;;;;;;;;;;5026275;28;20053;-73
2022/10/13 07:52:19;;;;;;;37.33;26.80;;;;;;;;;;5011383;28;20045;-73
2022/10/13 07:54:45;;;;;;;40.25;28.02;;;;;;;;;;5010334;28;20041;-73
2022/10/13 07:57:11;;;;;;;35.17;25.58;;;;;;;;;;5027511;28;20210;-73
2022/10/13 07:59:37;;;;;;;37.47;27.80;;;;;;;;;;5043608;28;20052;-73
2022/10/13 08:02:04;;;;;;;34.15;25.45;;;;;;;;;;5011304;28;20089;-73
2022/10/13 08:04:30;;;;;;;45.30;27.95;;;;;;;;;;5039222;28;20076;-73
2022/10/13 08:06:57;;;;;;;42.35;26.45;;;;;;;;;;4994732;28;20071;-73
2022/10/13 08:09:24;;;;;;;34.63;25.27;;;;;;;;;;5027389;28;20381;-73
2022/10/13 08:11:50;;;;;;;42.13;26.75;;;;;;;;;;5029309;28;20053;-73
2022/10/13 08:14:16;;;;;;;44.67;27.70;;;;;;;;;;5054495;28;20132;-73
2022/10/13 08:16:44;;;;;;;43.50;28.05;;;;;;;;;;5016540;28;20056;-73
2022/10/13 08:19:14;;;;;;;37.75;25.85;;;;;;;;;;4999284;28;20049;-73
2022/10/13 08:21:41;;;;;;;40.20;28.65;;;;;;;;;;5012281;28;20056;-73
2022/10/13 08:24:09;;;;;;;34.30;26.17;;;;;;;;;;5014390;28;20049;-73
2022/10/13 08:26:36;;;;;;;44.92;29.50;;;;;;;;;;5057285;28;20049;-73
2022/10/13 08:29:02;;;;;;;39.60;28.60;;;;;;;;;;5032608;28;20079;-73
2022/10/13 08:31:28;;;;;;;43.30;29.90;;;;;;;;;;5057810;28;20088;-73
2022/10/13 08:33:54;;;;;;;47.97;28.73;;;;;;;;;;5031873;28;20186;-73
2022/10/13 08:36:20;;;;;;;43.78;29.27;;;;;;;;;;5032340;28;20084;-73
2022/10/13 08:38:46;;;;;;;54.03;30.92;;;;;;;;;;5031707;28;20044;-73
2022/10/13 08:41:18;;;;;;;43.10;32.13;;;;;;;;;;5059531;28;20048;-73
2022/10/13 08:43:48;;;;;;;48.25;30.38;;;;;;;;;;5031641;28;20114;-73
2022/10/13 08:46:15;;;;;;;38.60;29.55;;;;;;;;;;5032794;28;20051;-73
2022/10/13 08:48:41;;;;;;;41.70;30.25;;;;;;;;;;5016697;28;20083;-73
2022/10/13 08:51:08;;;;;;;42.05;29.77;;;;;;;;;;5032958;28;20136;-73
2022/10/13 08:53:36;;;;;;;52.28;30.50;;;;;;;;;;5015503;28;20052;-73
2022/10/13 08:56:10;;;;;;;47.72;29.08;;;;;;;;;;5059529;28;20559;-73
2022/10/13 08:58:38;;;;;;;42.47;28.25;;;;;;;;;;5017782;28;20437;-73
2022/10/13 09:01:04;;;;;;;44.88;27.23;;;;;;;;;;5056935;28;20045;-73
2022/10/13 09:03:30;;;;;;;35.75;25.95;;;;;;;;;;5031530;28;20143;-73
2022/10/13 09:06:13;;;;;;;41.95;26.65;;;;;;;;;;5035090;28;20053;-73
2022/10/13 09:08:41;;;;;;;38.10;27.77;;;;;;;;;;5027947;28;20080;-73
2022/10/13 09:11:09;;;;;;;38.55;28.35;;;;;;;;;;5012403;28;20342;-73
2022/10/13 09:13:35;;;;;;;40.40;26.45;;;;;;;;;;5028999;28;20049;-73
2022/10/13 09:16:01;;;;;;;34.75;27.75;;;;;;;;;;5027836;28;20072;-73
2022/10/13 09:18:29;;;;;;;37.80;25.83;;;;;;;;;;5027649;28;20087;-73
2022/10/13 09:21:10;;;;;;;33.65;24.45;;;;;;;;;;5028571;28;20107;-73
2022/10/13 09:23:37;;;;;;;35.50;24.83;;;;;;;;;;5026887;28;20084;-73
2022/10/13 09:26:07;;;;;;;35.95;22.73;;;;;;;;;;5027884;28;20045;-73
2022/10/13 09:28:33;;;;;;;34.75;24.02;;;;;;;;;;5028218;28;20481;-73
2022/10/13 09:31:05;;;;;;;34.67;24.58;;;;;;;;;;5028573;28;20410;-73
2022/10/13 09:33:35;;;;;;;32.00;23.58;;;;;;;;;;5028549;28;20474;-73
2022/10/13 09:36:02;;;;;;;37.63;25.58;;;;;;;;;;5028564;28;20056;-73
2022/10/13 09:38:28;;;;;;;31.40;22.65;;;;;;;;;;5027648;28;20154;-74
2022/10/13 09:40:59;;;;;;;28.00;21.83;;;;;;;;;;5027494;28;20115;-73
2022/10/13 09:43:32;;;;;;;31.88;24.42;;;;;;;;;;5027629;28;20058;-74
2022/10/13 09:45:59;;;;;;;31.67;23.02;;;;;;;;;;5027849;28;20058;-74
2022/10/13 09:48:29;;;;;;;33.33;22.45;;;;;;;;;;5027498;28;20053;-74
2022/10/13 09:50:56;;;;;;;30.00;21.67;;;;;;;;;;5026762;28;20050;-74
2022/10/13 09:53:22;;;;;;;35.08;24.42;;;;;;;;;;5027822;28;20045;-74
2022/10/13 09:55:48;;;;;;;29.92;21.10;;;;;;;;;;5028044;28;20061;-74
2022/10/13 09:58:14;;;;;;;32.15;22.17;;;;;;;;;;5027308;28;20130;-74
2022/10/13 10:00:41;;;;;;;29.67;22.08;;;;;;;;;;5011195;28;20155;-74
2022/10/13 10:03:15;;;;;;;34.88;25.15;;;;;;;;;;5028253;28;20060;-74
2022/10/13 10:05:50;;;;;;;33.85;23.35;;;;;;;;;;5027043;28;20219;-74
2022/10/13 10:08:36;;;;;;;34.03;22.40;;;;;;;;;;5028885;28;20037;-74
2022/10/13 10:11:04;;;;;;;33.35;23.20;;;;;;;;;;5028650;28;20061;-74
2022/10/13 10:13:30;;;;;;;27.23;20.73;;;12.50;99.90;;;;;;5028132;28;20092;-74
2022/10/13 10:16:14;;;;;;;35.97;22.38;;;13.50;99.90;;;;;;5028525;28;20053;-74
2022/10/13 10:18:57;;;;;;;31.77;23.25;;;13.50;99.90;;;;;;5028171;28;20048;-74
2022/10/13 10:21:42;;;;;;;33.60;21.55;;;13.60;99.90;;;;;;5028792;28;20053;-74
2022/10/13 10:24:32;;;;;;;34.75;25.02;;;13.60;99.90;;;;;;5013310;28;20141;-74
2022/10/13 10:27:23;;;;;;;34.72;21.85;;;13.60;99.90;;;;;;5025627;28;20584;-74
2022/10/13 10:30:00;;;;;;;31.23;21.08;;;13.70;99.90;;;;;;5014691;28;20048;-74
2022/10/13 10:32:44;;;;;;;22.83;18.23;;;;;;;;;;5028479;28;20175;-73
2022/10/13 10:35:14;;;;;;;29.02;22.30;;;;;;;;;;5027912;28;20061;-74
2022/10/13 10:37:59;;;;;;;26.38;19.75;;;;;;;;;;5028343;28;20074;-74
2022/10/13 10:40:38;;;;;;;32.90;20.92;;;;;;;;;;5027409;28;20049;-74
2022/10/13 10:43:10;;;;;;;32.83;19.70;;;;;;;;;;5027275;28;20045;-73
2022/10/13 10:45:38;;;;;;;29.17;19.02;;;;;;;;;;5027477;28;20498;-74
2022/10/13 10:48:22;;;;;;;26.20;19.45;;;;;;;;;;5027751;28;20081;-73
2022/10/13 10:50:50;;;;;;;28.25;19.40;;;;;;;;;;5006807;28;20053;-74
2022/10/13 10:53:19;;;;;;;22.02;16.60;;;;;;;;;;5011710;28;20379;-73
2022/10/13 10:55:50;;;;;;;23.77;16.77;;;;;;;;;;5027441;28;20231;-74
2022/10/13 10:58:27;;;;;;;26.48;18.40;;;;;;;;;;5027301;28;20591;-74
2022/10/13 11:00:53;;;;;;;23.50;17.55;;;;;;;;;;5026508;28;20181;-74
2022/10/13 11:03:34;;;;;;;24.20;16.13;;;;;;;;;;5027206;28;20057;-74
2022/10/13 11:06:04;;;;;;;21.65;15.30;;;;;;;;;;5036864;28;20165;-74
2022/10/13 11:08:30;;;;;;;24.08;15.30;;;;;;;;;;5025772;28;20053;-74
2022/10/13 11:11:15;;;;;;;20.83;15.30;;;;;;;;;;5025520;28;20049;-76
2022/10/13 11:13:50;;;;;;;19.27;15.48;;;;;;;;;;5026798;28;20056;-76
2022/10/13 11:16:28;;;;;;;20.38;14.40;;;;;;;;;;5026283;28;20088;-76
2022/10/13 11:18:54;;;;;;;18.15;13.25;;;;;;;;;;4995137;28;20400;-76
2022/10/13 11:21:21;;;;;;;19.27;13.65;;;;;;;;;;5025467;28;20103;-76
2022/10/13 11:23:48;;;;;;;21.45;13.32;;;;;;;;;;5024411;28;20067;-76
2022/10/13 11:26:19;;;;;;;21.05;13.85;;;;;;;;;;5025563;28;21946;-76
2022/10/13 11:28:46;;;;;;;17.80;12.77;;;;;;;;;;5011465;28;20041;-76
2022/10/13 11:31:12;;;;;;;16.25;13.20;;;;;;;;;;5025021;28;20104;-76
2022/10/13 11:33:38;;;;;;;21.73;13.27;;;;;;;;;;5008441;28;20052;-76
2022/10/13 11:36:23;;;;;;;16.92;11.43;;;;;;;;;;5008420;28;20073;-76
2022/10/13 11:38:51;;;;;;;15.18;10.13;;;;;;;;;;4998893;28;20084;-76
2022/10/13 11:41:24;;;;;;;16.73;10.95;;;;;;;;;;5024256;28;20045;-76
2022/10/13 11:43:50;;;;;;;19.42;11.13;;;;;;;;;;5024246;28;20402;-76
2022/10/13 11:46:23;;;;;;;15.18;9.05;;;;;;;;;;5024016;28;20037;-76
2022/10/13 11:49:04;;;;;;;15.02;9.10;;;;;;;;;;5025434;28;20060;-76
2022/10/13 11:51:46;;;;;;;11.65;8.68;;;;;;;;;;5025964;28;20073;-76
2022/10/13 11:54:21;;;;;;;10.93;8.50;;;;;;;;;;5025569;28;20064;-76
2022/10/13 11:56:52;;;;;;;12.25;8.15;;;;;;;;;;5025375;28;20184;-76
2022/10/13 11:59:38;;;;;;;11.98;8.18;;;;;;;;;;5023665;28;20196;-76
2022/10/13 12:02:04;;;;;;;9.70;5.57;;;;;;;;;;4996287;28;20451;-76
2022/10/13 12:04:30;;;;;;;8.07;5.47;;;;;;;;;;5026537;28;21034;-76
2022/10/13 12:07:01;;;;;;;11.20;5.32;;;;;;;;;;5032406;28;20091;-76
2022/10/13 12:09:30;;;;;;;11.57;5.65;;;;;;;;;;5011948;28;20057;-76
2022/10/13 12:12:01;;;;;;;8.30;4.85;;;;;;;;;;5024136;28;20085;-76
2022/10/13 12:14:32;;;;;;;9.32;5.07;;;;;;;;;;5025004;28;20473;-76
2022/10/13 12:17:00;;;;;;;10.38;4.10;;;;;;;;;;5041475;28;20068;-74
2022/10/13 12:19:27;;;;;;;7.13;3.38;;;;;;;;;;5025142;28;20107;-74
2022/10/13 12:21:55;;;;;;;6.55;3.80;;;;;;;;;;5025582;28;20127;-74
2022/10/13 12:24:22;;;;;;;9.73;3.90;;;;;;;;;;5024565;28;20042;-74
2022/10/13 12:26:49;;;;;;;9.90;4.15;;;13.70;99.90;;;;;;5024972;28;20072;-73
2022/10/13 12:29:16;;;;;;;5.75;3.55;;;;;;;;;;5051964;28;20050;-74
2022/10/13 12:31:44;;;;;;;7.50;3.83;;;;;;;;;;5026245;28;20053;-74
2022/10/13 12:34:16;;;;;;;7.88;3.30;;;;;;;;;;5026527;28;20060;-74
2022/10/13 12:36:43;;;;;;;7.27;3.47;;;;;;;;;;5025335;28;20052;-74
2022/10/13 12:39:12;;;;;;;8.73;5.03;;;;;;;;;;5025709;28;20088;-74
2022/10/13 12:41:41;;;;;;;5.53;3.85;;;;;;;;;;5025224;28;20047;-74
2022/10/13 12:44:10;;;;;;;6.97;3.28;;;;;;;;;;5026098;28;20100;-75
2022/10/13 12:46:36;;;;;;;5.97;3.55;;;;;;;;;;5025959;28;20085;-73
2022/10/13 12:49:07;;;;;;;14.07;3.60;;;;;;;;;;5041852;28;20559;-74
2022/10/13 12:51:34;;;;;;;5.72;3.38;;;;;;;;;;5025329;28;20099;-74
2022/10/13 12:54:05;;;;;;;15.18;3.42;;;;;;;;;;5023839;28;20133;-74
2022/10/13 12:56:32;;;;;;;8.10;3.65;;;;;;;;;;5012789;28;20064;-74
2022/10/13 12:58:58;;;;;;;11.80;3.75;;;;;;;;;;5034665;28;20048;-74
2022/10/13 13:01:32;;;;;;;7.57;3.40;;;;;;;;;;5008715;28;20048;-76
2022/10/13 13:04:00;;;;;;;10.70;3.15;;;;;;;;;;5025378;28;20053;-74
2022/10/13 13:06:29;;;;;;;6.88;3.28;;;;;;;;;;5025852;28;20048;-74
2022/10/13 13:09:19;;;;;;;5.88;2.97;;;;;;;;;;5025681;28;20478;-76
2022/10/13 13:11:46;;;;;;;4.65;2.72;;;;;;;;;;5024966;28;20560;-74
2022/10/13 13:14:31;;;;;;;6.43;2.50;;;;;;;;;;5027721;28;20497;-74
2022/10/13 13:17:09;;;;;;;7.63;3.30;;;;;;;;;;5045179;28;20124;-74
2022/10/13 13:19:36;;;;;;;6.75;2.30;;;;;;;;;;5028631;28;20053;-74
2022/10/13 13:22:03;;;;;;;7.15;3.03;;;;;;;;;;5011607;28;20176;-74
2022/10/13 13:24:29;;;;;;;6.65;2.92;;;;;;;;;;5027920;28;20335;-75
2022/10/13 13:26:55;;;;;;;10.15;2.80;;;;;;;;;;5027801;28;20053;-74
2022/10/13 13:29:21;;;;;;;13.05;3.03;;;;;;;;;;4994458;28;20064;-76
2022/10/13 13:31:47;;;;;;;10.80;2.63;;;;;;;;;;5027786;28;20057;-76
2022/10/13 13:34:13;;;;;;;6.13;2.33;;;;;;;;;;5027894;28;20462;-78
2022/10/13 13:36:40;;;;;;;8.70;2.53;;;;;;;;;;5002888;28;20045;-73
2022/10/13 13:39:13;;;;;;;7.60;2.45;;;;;;;;;;5027895;28;20056;-74
2022/10/13 13:41:39;;;;;;;5.38;2.22;;;;;;;;;;5027892;28;20492;-74
2022/10/13 13:44:05;;;;;;;4.72;2.50;;;;;;;;;;5027518;28;20049;-74
2022/10/13 13:46:31;;;;;;;6.30;2.17;;;;;;;;;;5010739;28;20055;-74
2022/10/13 13:48:58;;;;;;;8.57;2.20;;;;;;;;;;4997032;28;20386;-73
2022/10/13 13:51:24;;;;;;;4.70;2.25;;;;;;;;;;5028751;28;20045;-73
2022/10/13 13:53:50;;;;;;;7.10;2.45;;;;;;;;;;5028409;28;20656;-74
2022/10/13 13:56:17;;;;;;;6.32;2.17;;;;;;;;;;5011440;28;20136;-74
2022/10/13 13:58:43;;;;;;;5.90;2.53;;;;;;;;;;5027369;28;20049;-74
2022/10/13 14:01:10;;;;;;;4.28;2.90;;;;;;;;;;5027021;28;20083;-74
2022/10/13 14:03:36;;;;;;;8.38;2.88;;;;;;;;;;5027697;28;20077;-74
2022/10/13 14:06:02;;;;;;;6.50;2.80;;;;;;;;;;5027670;28;20076;-78
2022/10/13 14:08:32;;;;;;;5.65;2.20;;;;;;;;;;5030596;28;20128;-74
2022/10/13 14:10:58;;;;;;;14.18;2.63;;;;;;;;;;5042094;28;20372;-74
2022/10/13 14:13:25;;;;;;;5.57;2.90;;;;;;;;;;5030245;28;20040;-73
2022/10/13 14:15:57;;;;;;;5.63;2.20;;;;;;;;;;5030912;28;20048;-73
2022/10/13 14:18:24;;;;;;;6.18;2.67;;;;;;;;;;5030249;28;20098;-73
2022/10/13 14:20:50;;;;;;;4.25;1.70;;;;;;;;;;5030464;28;20049;-73
2022/10/13 14:23:16;;;;;;;3.28;1.73;;;;;;;;;;5030585;28;20080;-73
2022/10/13 14:25:42;;;;;;;5.75;2.10;;;;;;;;;;5029331;28;20057;-74
2022/10/13 14:28:08;;;;;;;5.15;2.38;;;;;;;;;;5050491;28;20053;-73